sensor_id;sensor_type;location;lat;lon;timestamp;temperature;humidity
54168;DHT22;68429;50.958;3.592;2024-02-21T00:01:50;9.50;99.90
54168;DHT22;68429;50.958;3.592;2024-02-21T00:04:15;9.50;99.90
54168;DHT22;68429;50.958;3.592;2024-02-21T00:06:41;9.50;99.90
54168;DHT22;68429;50.958;3.592;2024-02-21T00:09:07;9.50;99.90
54168;DHT22;68429;50.958;3.592;2024-02-21T00:11:35;9.50;99.90
54168;DHT22;68429;50.958;3.592;2024-02-21T00:14:00;9.40;99.90
54168;DHT22;68429;50.958;3.592;2024-02-21T00:16:26;9.50;99.90
54168;DHT22;68429;50.958;3.592;2024-02-21T00:18:52;9.40;99.90
54168;DHT22;68429;50.958;3.592;2024-02-21T00:21:17;9.40;99.90
54168;DHT22;68429;50.958;3.592;2024-02-21T00:23:46;9.30;99.90
54168;DHT22;68429;50.958;3.592;2024-02-21T00:26:13;9.30;99.90
54168;DHT22;68429;50.958;3.592;2024-02-21T00:28:41;9.40;99.90
54168;DHT22;68429;50.958;3.592;2024-02-21T00:31:06;9.30;99.90
54168;DHT22;68429;50.958;3.592;2024-02-21T00:33:32;9.30;99.90
54168;DHT22;68429;50.958;3.592;2024-02-21T00:35:58;9.20;99.90
54168;DHT22;68429;50.958;3.592;2024-02-21T00:38:23;9.20;99.90
54168;DHT22;68429;50.958;3.592;2024-02-21T00:40:49;9.10;99.90
54168;DHT22;68429;50.958;3.592;2024-02-21T00:43:14;9.00;99.90
54168;DHT22;68429;50.958;3.592;2024-02-21T00:45:40;8.90;99.90
54168;DHT22;68429;50.958;3.592;2024-02-21T00:48:06;8.90;99.90
54168;DHT22;68429;50.958;3.592;2024-02-21T00:50:32;8.80;99.90
54168;DHT22;68429;50.958;3.592;2024-02-21T00:52:57;8.80;99.90
54168;DHT22;68429;50.958;3.592;2024-02-21T00:55:23;8.80;99.90
54168;DHT22;68429;50.958;3.592;2024-02-21T00:57:49;8.70;99.90
54168;DHT22;68429;50.958;3.592;2024-02-21T01:00:15;8.70;99.90
54168;DHT22;68429;50.958;3.592;2024-02-21T01:02:40;8.70;99.90
54168;DHT22;68429;50.958;3.592;2024-02-21T01:05:06;8.70;99.90
54168;DHT22;68429;50.958;3.592;2024-02-21T01:07:32;8.70;99.90
54168;DHT22;68429;50.958;3.592;2024-02-21T01:09:58;8.70;99.90
54168;DHT22;68429;50.958;3.592;2024-02-21T01:12:23;8.70;99.90
54168;DHT22;68429;50.958;3.592;2024-02-21T01:14:49;8.70;99.90
54168;DHT22;68429;50.958;3.592;2024-02-21T01:17:15;8.70;99.90
54168;DHT22;68429;50.958;3.592;2024-02-21T01:19:40;8.70;99.90
54168;DHT22;68429;50.958;3.592;2024-02-21T01:22:06;8.70;99.90
54168;DHT22;68429;50.958;3.592;2024-02-21T01:24:32;8.70;99.90
54168;DHT22;68429;50.958;3.592;2024-02-21T01:26:57;8.70;99.90
54168;DHT22;68429;50.958;3.592;2024-02-21T01:29:23;8.60;99.90
54168;DHT22;68429;50.958;3.592;2024-02-21T01:31:49;8.60;99.90
54168;DHT22;68429;50.958;3.592;2024-02-21T01:34:14;8.60;99.90
54168;DHT22;68429;50.958;3.592;2024-02-21T01:36:40;8.60;99.90
54168;DHT22;68429;50.958;3.592;2024-02-21T01:39:10;8.60;99.90
54168;DHT22;68429;50.958;3.592;2024-02-21T01:41:36;8.60;99.90
54168;DHT22;68429;50.958;3.592;2024-02-21T01:44:01;8.60;99.90
54168;DHT22;68429;50.958;3.592;2024-02-21T01:46:27;8.60;99.90
54168;DHT22;68429;50.958;3.592;2024-02-21T01:48:55;8.60;99.90
54168;DHT22;68429;50.958;3.592;2024-02-21T01:51:21;8.50;99.90
54168;DHT22;68429;50.958;3.592;2024-02-21T01:53:47;8.50;99.90
54168;DHT22;68429;50.958;3.592;2024-02-21T01:56:13;8.50;99.90
54168;DHT22;68429;50.958;3.592;2024-02-21T01:58:40;8.40;99.90
54168;DHT22;68429;50.958;3.592;2024-02-21T02:01:07;8.40;99.90
54168;DHT22;68429;50.958;3.592;2024-02-21T02:03:33;8.40;99.90
54168;DHT22;68429;50.958;3.592;2024-02-21T02:05:59;8.40;99.90
54168;DHT22;68429;50.958;3.592;2024-02-21T02:08:25;8.40;99.90
54168;DHT22;68429;50.958;3.592;2024-02-21T02:10:52;8.40;99.90
54168;DHT22;68429;50.958;3.592;2024-02-21T02:13:17;8.30;99.90
54168;DHT22;68429;50.958;3.592;2024-02-21T02:15:47;8.30;99.90
54168;DHT22;68429;50.958;3.592;2024-02-21T02:18:14;8.30;99.90
54168;DHT22;68429;50.958;3.592;2024-02-21T02:20:40;8.20;99.90
54168;DHT22;68429;50.958;3.592;2024-02-21T02:23:27;8.20;99.90
54168;DHT22;68429;50.958;3.592;2024-02-21T02:25:53;8.20;99.90
54168;DHT22;68429;50.958;3.592;2024-02-21T02:28:19;8.20;99.90
54168;DHT22;68429;50.958;3.592;2024-02-21T02:30:45;8.20;99.90
54168;DHT22;68429;50.958;3.592;2024-02-21T02:33:11;8.20;99.90
54168;DHT22;68429;50.958;3.592;2024-02-21T02:35:37;8.20;99.90
54168;DHT22;68429;50.958;3.592;2024-02-21T02:38:03;8.10;99.90
54168;DHT22;68429;50.958;3.592;2024-02-21T02:40:29;8.10;99.90
54168;DHT22;68429;50.958;3.592;2024-02-21T02:42:55;8.10;99.90
54168;DHT22;68429;50.958;3.592;2024-02-21T02:45:22;8.20;99.90
54168;DHT22;68429;50.958;3.592;2024-02-21T02:47:55;8.30;99.90
54168;DHT22;68429;50.958;3.592;2024-02-21T02:50:23;8.50;99.90
54168;DHT22;68429;50.958;3.592;2024-02-21T02:52:48;8.50;99.90
54168;DHT22;68429;50.958;3.592;2024-02-21T02:55:14;8.50;99.90
54168;DHT22;68429;50.958;3.592;2024-02-21T02:57:40;8.60;99.90
54168;DHT22;68429;50.958;3.592;2024-02-21T03:00:10;8.50;99.90
54168;DHT22;68429;50.958;3.592;2024-02-21T03:02:38;8.40;99.90
54168;DHT22;68429;50.958;3.592;2024-02-21T03:05:18;8.50;99.90
54168;DHT22;68429;50.958;3.592;2024-02-21T03:07:44;8.60;99.90
54168;DHT22;68429;50.958;3.592;2024-02-21T03:10:11;8.50;99.90
54168;DHT22;68429;50.958;3.592;2024-02-21T03:12:41;8.60;99.90
54168;DHT22;68429;50.958;3.592;2024-02-21T03:15:06;8.60;99.90
54168;DHT22;68429;50.958;3.592;2024-02-21T03:17:33;8.60;99.90
54168;DHT22;68429;50.958;3.592;2024-02-21T03:20:00;8.70;99.90
54168;DHT22;68429;50.958;3.592;2024-02-21T03:22:27;8.70;99.90
54168;DHT22;68429;50.958;3.592;2024-02-21T03:24:53;8.60;99.90
54168;DHT22;68429;50.958;3.592;2024-02-21T03:27:18;8.60;99.90
54168;DHT22;68429;50.958;3.592;2024-02-21T03:29:44;8.60;99.90
54168;DHT22;68429;50.958;3.592;2024-02-21T03:32:10;8.50;99.90
54168;DHT22;68429;50.958;3.592;2024-02-21T03:34:35;8.50;99.90
54168;DHT22;68429;50.958;3.592;2024-02-21T03:37:01;8.50;99.90
54168;DHT22;68429;50.958;3.592;2024-02-21T03:39:27;8.50;99.90
54168;DHT22;68429;50.958;3.592;2024-02-21T03:41:52;8.40;99.90
54168;DHT22;68429;50.958;3.592;2024-02-21T03:44:19;8.40;99.90
54168;DHT22;68429;50.958;3.592;2024-02-21T03:46:44;8.40;99.90
54168;DHT22;68429;50.958;3.592;2024-02-21T03:49:10;8.40;99.90
54168;DHT22;68429;50.958;3.592;2024-02-21T03:51:36;8.30;99.90
54168;DHT22;68429;50.958;3.592;2024-02-21T03:54:01;8.30;99.90
54168;DHT22;68429;50.958;3.592;2024-02-21T03:56:27;8.30;99.90
54168;DHT22;68429;50.958;3.592;2024-02-21T03:58:53;8.30;99.90
54168;DHT22;68429;50.958;3.592;2024-02-21T04:01:18;8.30;99.90
54168;DHT22;68429;50.958;3.592;2024-02-21T04:03:44;8.40;99.90
54168;DHT22;68429;50.958;3.592;2024-02-21T04:06:10;8.30;99.90
54168;DHT22;68429;50.958;3.592;2024-02-21T04:08:36;8.30;99.90
54168;DHT22;68429;50.958;3.592;2024-02-21T04:11:02;8.30;99.90
54168;DHT22;68429;50.958;3.592;2024-02-21T04:13:27;8.30;99.90
54168;DHT22;68429;50.958;3.592;2024-02-21T04:15:53;8.40;99.90
54168;DHT22;68429;50.958;3.592;2024-02-21T04:18:19;8.40;99.90
54168;DHT22;68429;50.958;3.592;2024-02-21T04:20:44;8.40;99.90
54168;DHT22;68429;50.958;3.592;2024-02-21T04:23:10;8.40;99.90
54168;DHT22;68429;50.958;3.592;2024-02-21T04:25:36;8.40;99.90
54168;DHT22;68429;50.958;3.592;2024-02-21T04:28:02;8.40;99.90
54168;DHT22;68429;50.958;3.592;2024-02-21T04:30:28;8.50;99.90
54168;DHT22;68429;50.958;3.592;2024-02-21T04:32:54;8.40;99.90
54168;DHT22;68429;50.958;3.592;2024-02-21T04:35:19;8.50;99.90
54168;DHT22;68429;50.958;3.592;2024-02-21T04:37:45;8.50;99.90
54168;DHT22;68429;50.958;3.592;2024-02-21T04:40:11;8.50;99.90
54168;DHT22;68429;50.958;3.592;2024-02-21T04:42:37;8.50;99.90
54168;DHT22;68429;50.958;3.592;2024-02-21T04:45:03;8.50;99.90
54168;DHT22;68429;50.958;3.592;2024-02-21T04:47:28;8.50;99.90
54168;DHT22;68429;50.958;3.592;2024-02-21T04:49:54;8.50;99.90
54168;DHT22;68429;50.958;3.592;2024-02-21T04:52:20;8.50;99.90
54168;DHT22;68429;50.958;3.592;2024-02-21T04:54:46;8.50;99.90
54168;DHT22;68429;50.958;3.592;2024-02-21T04:57:11;8.50;99.90
54168;DHT22;68429;50.958;3.592;2024-02-21T04:59:45;8.50;99.90
54168;DHT22;68429;50.958;3.592;2024-02-21T05:02:11;8.50;99.90
54168;DHT22;68429;50.958;3.592;2024-02-21T05:04:40;8.50;99.90
54168;DHT22;68429;50.958;3.592;2024-02-21T05:07:07;8.40;99.90
54168;DHT22;68429;50.958;3.592;2024-02-21T05:09:33;8.40;99.90
54168;DHT22;68429;50.958;3.592;2024-02-21T05:11:58;8.40;99.90
54168;DHT22;68429;50.958;3.592;2024-02-21T05:14:25;8.50;99.90
54168;DHT22;68429;50.958;3.592;2024-02-21T05:16:52;8.50;99.90
54168;DHT22;68429;50.958;3.592;2024-02-21T05:19:18;8.50;99.90
54168;DHT22;68429;50.958;3.592;2024-02-21T05:21:43;8.50;99.90
54168;DHT22;68429;50.958;3.592;2024-02-21T05:24:09;8.50;99.90
54168;DHT22;68429;50.958;3.592;2024-02-21T05:26:35;8.50;99.90
54168;DHT22;68429;50.958;3.592;2024-02-21T05:29:00;8.50;99.90
54168;DHT22;68429;50.958;3.592;2024-02-21T05:31:26;8.50;99.90
54168;DHT22;68429;50.958;3.592;2024-02-21T05:34:07;8.50;99.90
54168;DHT22;68429;50.958;3.592;2024-02-21T05:36:34;8.50;99.90
54168;DHT22;68429;50.958;3.592;2024-02-21T05:38:59;8.50;99.90
54168;DHT22;68429;50.958;3.592;2024-02-21T05:41:25;8.40;99.90
54168;DHT22;68429;50.958;3.592;2024-02-21T05:43:50;8.40;99.90
54168;DHT22;68429;50.958;3.592;2024-02-21T05:46:19;8.50;99.90
54168;DHT22;68429;50.958;3.592;2024-02-21T05:48:45;8.50;99.90
54168;DHT22;68429;50.958;3.592;2024-02-21T05:51:11;8.50;99.90
54168;DHT22;68429;50.958;3.592;2024-02-21T05:53:36;8.50;99.90
54168;DHT22;68429;50.958;3.592;2024-02-21T05:56:10;8.50;99.90
54168;DHT22;68429;50.958;3.592;2024-02-21T05:58:37;8.50;99.90
54168;DHT22;68429;50.958;3.592;2024-02-21T06:01:02;8.40;99.90
54168;DHT22;68429;50.958;3.592;2024-02-21T06:03:29;8.40;99.90
54168;DHT22;68429;50.958;3.592;2024-02-21T06:05:55;8.40;99.90
54168;DHT22;68429;50.958;3.592;2024-02-21T06:08:20;8.50;99.90
54168;DHT22;68429;50.958;3.592;2024-02-21T06:10:46;8.50;99.90
54168;DHT22;68429;50.958;3.592;2024-02-21T06:13:14;8.50;99.90
54168;DHT22;68429;50.958;3.592;2024-02-21T06:15:39;8.50;99.90
54168;DHT22;68429;50.958;3.592;2024-02-21T06:18:05;8.50;99.90
54168;DHT22;68429;50.958;3.592;2024-02-21T06:20:31;8.50;99.90
54168;DHT22;68429;50.958;3.592;2024-02-21T06:22:57;8.50;99.90
54168;DHT22;68429;50.958;3.592;2024-02-21T06:25:22;8.50;99.90
54168;DHT22;68429;50.958;3.592;2024-02-21T06:27:48;8.50;99.90
54168;DHT22;68429;50.958;3.592;2024-02-21T06:30:14;8.50;99.90
54168;DHT22;68429;50.958;3.592;2024-02-21T06:32:39;8.50;99.90
54168;DHT22;68429;50.958;3.592;2024-02-21T06:35:05;8.50;99.90
54168;DHT22;68429;50.958;3.592;2024-02-21T06:37:31;8.50;99.90
54168;DHT22;68429;50.958;3.592;2024-02-21T06:39:58;8.60;99.90
54168;DHT22;68429;50.958;3.592;2024-02-21T06:42:26;8.60;99.90
54168;DHT22;68429;50.958;3.592;2024-02-21T06:44:52;8.60;99.90
54168;DHT22;68429;50.958;3.592;2024-02-21T06:47:18;8.70;99.90
54168;DHT22;68429;50.958;3.592;2024-02-21T06:49:48;8.70;99.90
54168;DHT22;68429;50.958;3.592;2024-02-21T06:52:14;8.70;99.90
54168;DHT22;68429;50.958;3.592;2024-02-21T06:54:42;8.70;99.90
54168;DHT22;68429;50.958;3.592;2024-02-21T06:57:08;8.80;99.90
54168;DHT22;68429;50.958;3.592;2024-02-21T06:59:34;8.70;99.90
54168;DHT22;68429;50.958;3.592;2024-02-21T07:01:59;8.70;99.90
54168;DHT22;68429;50.958;3.592;2024-02-21T07:04:26;8.70;99.90
54168;DHT22;68429;50.958;3.592;2024-02-21T07:06:52;8.70;99.90
54168;DHT22;68429;50.958;3.592;2024-02-21T07:09:18;8.70;99.90
54168;DHT22;68429;50.958;3.592;2024-02-21T07:11:44;8.80;99.90
54168;DHT22;68429;50.958;3.592;2024-02-21T07:14:09;8.90;99.90
54168;DHT22;68429;50.958;3.592;2024-02-21T07:16:35;8.80;99.90
54168;DHT22;68429;50.958;3.592;2024-02-21T07:19:00;8.80;99.90
54168;DHT22;68429;50.958;3.592;2024-02-21T07:21:26;8.90;99.90
54168;DHT22;68429;50.958;3.592;2024-02-21T07:23:52;8.80;99.90
54168;DHT22;68429;50.958;3.592;2024-02-21T07:26:17;8.80;99.90
54168;DHT22;68429;50.958;3.592;2024-02-21T07:28:43;8.90;99.90
54168;DHT22;68429;50.958;3.592;2024-02-21T07:31:08;9.00;99.90
54168;DHT22;68429;50.958;3.592;2024-02-21T07:33:34;9.20;99.90
54168;DHT22;68429;50.958;3.592;2024-02-21T07:36:01;9.30;99.90
54168;DHT22;68429;50.958;3.592;2024-02-21T07:38:26;9.30;99.90
54168;DHT22;68429;50.958;3.592;2024-02-21T07:40:52;9.10;99.90
54168;DHT22;68429;50.958;3.592;2024-02-21T07:43:18;9.20;99.90
54168;DHT22;68429;50.958;3.592;2024-02-21T07:45:43;9.10;99.90
54168;DHT22;68429;50.958;3.592;2024-02-21T07:48:09;9.00;99.90
54168;DHT22;68429;50.958;3.592;2024-02-21T07:50:35;9.00;99.90
54168;DHT22;68429;50.958;3.592;2024-02-21T07:53:00;9.10;99.90
54168;DHT22;68429;50.958;3.592;2024-02-21T07:55:26;9.20;99.90
54168;DHT22;68429;50.958;3.592;2024-02-21T07:57:51;9.20;99.90
54168;DHT22;68429;50.958;3.592;2024-02-21T08:00:17;9.40;99.90
54168;DHT22;68429;50.958;3.592;2024-02-21T08:02:46;9.30;99.90
54168;DHT22;68429;50.958;3.592;2024-02-21T08:05:11;9.30;99.90
54168;DHT22;68429;50.958;3.592;2024-02-21T08:07:40;9.30;99.90
54168;DHT22;68429;50.958;3.592;2024-02-21T08:10:07;9.30;99.90
54168;DHT22;68429;50.958;3.592;2024-02-21T08:12:33;9.20;99.90
54168;DHT22;68429;50.958;3.592;2024-02-21T08:14:59;9.30;99.90
54168;DHT22;68429;50.958;3.592;2024-02-21T08:17:25;9.30;99.90
54168;DHT22;68429;50.958;3.592;2024-02-21T08:19:51;9.40;99.90
54168;DHT22;68429;50.958;3.592;2024-02-21T08:22:16;9.40;99.90
54168;DHT22;68429;50.958;3.592;2024-02-21T08:24:42;9.40;99.90
54168;DHT22;68429;50.958;3.592;2024-02-21T08:27:08;9.50;99.90
54168;DHT22;68429;50.958;3.592;2024-02-21T08:29:34;9.50;99.90
54168;DHT22;68429;50.958;3.592;2024-02-21T08:31:59;9.50;99.90
54168;DHT22;68429;50.958;3.592;2024-02-21T08:34:34;9.40;99.90
54168;DHT22;68429;50.958;3.592;2024-02-21T08:37:07;9.40;99.90
54168;DHT22;68429;50.958;3.592;2024-02-21T08:39:33;9.30;99.90
54168;DHT22;68429;50.958;3.592;2024-02-21T08:41:59;9.30;99.90
54168;DHT22;68429;50.958;3.592;2024-02-21T08:44:25;9.40;99.90
54168;DHT22;68429;50.958;3.592;2024-02-21T08:46:53;9.30;99.90
54168;DHT22;68429;50.958;3.592;2024-02-21T08:49:19;9.20;99.90
54168;DHT22;68429;50.958;3.592;2024-02-21T08:51:44;9.10;99.90
54168;DHT22;68429;50.958;3.592;2024-02-21T08:54:11;9.20;99.90
54168;DHT22;68429;50.958;3.592;2024-02-21T08:56:37;9.10;99.90
54168;DHT22;68429;50.958;3.592;2024-02-21T08:59:03;9.20;99.90
54168;DHT22;68429;50.958;3.592;2024-02-21T09:01:29;9.30;99.90
54168;DHT22;68429;50.958;3.592;2024-02-21T09:03:55;9.20;99.90
54168;DHT22;68429;50.958;3.592;2024-02-21T09:06:22;9.10;99.90
54168;DHT22;68429;50.958;3.592;2024-02-21T09:08:48;9.20;99.90
54168;DHT22;68429;50.958;3.592;2024-02-21T09:11:14;9.20;99.90
54168;DHT22;68429;50.958;3.592;2024-02-21T09:13:40;9.20;99.90
54168;DHT22;68429;50.958;3.592;2024-02-21T09:16:06;9.20;99.90
54168;DHT22;68429;50.958;3.592;2024-02-21T09:18:31;9.30;99.90
54168;DHT22;68429;50.958;3.592;2024-02-21T09:21:00;9.30;99.90
54168;DHT22;68429;50.958;3.592;2024-02-21T09:23:26;9.40;99.90
54168;DHT22;68429;50.958;3.592;2024-02-21T09:25:52;9.40;99.90
54168;DHT22;68429;50.958;3.592;2024-02-21T09:28:18;9.20;99.90
54168;DHT22;68429;50.958;3.592;2024-02-21T09:30:44;9.10;99.90
54168;DHT22;68429;50.958;3.592;2024-02-21T09:33:11;9.20;99.90
54168;DHT22;68429;50.958;3.592;2024-02-21T09:35:36;9.30;99.90
54168;DHT22;68429;50.958;3.592;2024-02-21T09:38:05;9.40;99.90
54168;DHT22;68429;50.958;3.592;2024-02-21T09:40:33;9.40;99.90
54168;DHT22;68429;50.958;3.592;2024-02-21T09:43:04;9.50;99.90
54168;DHT22;68429;50.958;3.592;2024-02-21T09:45:32;9.50;99.90
54168;DHT22;68429;50.958;3.592;2024-02-21T09:48:32;9.60;99.90
54168;DHT22;68429;50.958;3.592;2024-02-21T09:51:01;9.60;99.90
54168;DHT22;68429;50.958;3.592;2024-02-21T09:53:27;9.60;99.90
54168;DHT22;68429;50.958;3.592;2024-02-21T09:55:53;9.70;99.90
54168;DHT22;68429;50.958;3.592;2024-02-21T09:58:20;9.80;99.90
54168;DHT22;68429;50.958;3.592;2024-02-21T10:00:46;9.70;99.90
54168;DHT22;68429;50.958;3.592;2024-02-21T10:03:12;9.70;99.90
54168;DHT22;68429;50.958;3.592;2024-02-21T10:05:45;9.70;99.90
54168;DHT22;68429;50.958;3.592;2024-02-21T10:08:14;9.60;99.90
54168;DHT22;68429;50.958;3.592;2024-02-21T10:10:43;9.50;99.90
54168;DHT22;68429;50.958;3.592;2024-02-21T10:13:10;9.60;99.90
54168;DHT22;68429;50.958;3.592;2024-02-21T10:15:36;9.90;99.90
54168;DHT22;68429;50.958;3.592;2024-02-21T10:18:02;10.10;99.90
54168;DHT22;68429;50.958;3.592;2024-02-21T10:20:32;9.90;99.90
54168;DHT22;68429;50.958;3.592;2024-02-21T10:23:05;10.00;99.90
54168;DHT22;68429;50.958;3.592;2024-02-21T10:25:35;9.80;99.90
54168;DHT22;68429;50.958;3.592;2024-02-21T10:28:03;9.80;99.90
54168;DHT22;68429;50.958;3.592;2024-02-21T10:30:29;10.00;99.90
54168;DHT22;68429;50.958;3.592;2024-02-21T10:32:55;10.00;99.90
54168;DHT22;68429;50.958;3.592;2024-02-21T10:35:32;9.90;99.90
54168;DHT22;68429;50.958;3.592;2024-02-21T10:37:59;10.00;99.90
54168;DHT22;68429;50.958;3.592;2024-02-21T10:40:29;9.80;99.90
54168;DHT22;68429;50.958;3.592;2024-02-21T10:43:00;9.80;99.90
54168;DHT22;68429;50.958;3.592;2024-02-21T10:45:35;9.80;99.90
54168;DHT22;68429;50.958;3.592;2024-02-21T10:48:12;9.80;99.90
54168;DHT22;68429;50.958;3.592;2024-02-21T10:56:31;9.60;99.90
54168;DHT22;68429;50.958;3.592;2024-02-21T10:59:01;9.50;99.90
54168;DHT22;68429;50.958;3.592;2024-02-21T11:01:28;9.60;99.90
54168;DHT22;68429;50.958;3.592;2024-02-21T11:04:04;9.60;99.90
54168;DHT22;68429;50.958;3.592;2024-02-21T11:06:31;9.60;99.90
54168;DHT22;68429;50.958;3.592;2024-02-21T11:09:02;9.40;99.90
54168;DHT22;68429;50.958;3.592;2024-02-21T11:11:28;9.30;99.90
54168;DHT22;68429;50.958;3.592;2024-02-21T11:14:04;9.40;99.90
54168;DHT22;68429;50.958;3.592;2024-02-21T11:16:43;9.50;99.90
54168;DHT22;68429;50.958;3.592;2024-02-21T11:21:37;9.50;99.90
54168;DHT22;68429;50.958;3.592;2024-02-21T11:24:04;9.50;99.90
54168;DHT22;68429;50.958;3.592;2024-02-21T11:26:30;9.50;99.90
54168;DHT22;68429;50.958;3.592;2024-02-21T11:29:01;9.50;99.90
54168;DHT22;68429;50.958;3.592;2024-02-21T11:31:41;9.60;99.90
54168;DHT22;68429;50.958;3.592;2024-02-21T11:34:10;9.60;99.90
54168;DHT22;68429;50.958;3.592;2024-02-21T11:36:49;9.50;99.90
54168;DHT22;68429;50.958;3.592;2024-02-21T11:39:35;9.60;99.90
54168;DHT22;68429;50.958;3.592;2024-02-21T11:42:04;9.50;99.90
54168;DHT22;68429;50.958;3.592;2024-02-21T11:44:31;9.50;99.90
54168;DHT22;68429;50.958;3.592;2024-02-21T11:46:58;9.50;99.90
54168;DHT22;68429;50.958;3.592;2024-02-21T11:49:29;9.60;99.90
54168;DHT22;68429;50.958;3.592;2024-02-21T11:52:02;9.60;99.90
54168;DHT22;68429;50.958;3.592;2024-02-21T11:54:30;9.50;99.90
54168;DHT22;68429;50.958;3.592;2024-02-21T11:56:55;9.40;99.90
54168;DHT22;68429;50.958;3.592;2024-02-21T11:59:21;9.40;99.90
54168;DHT22;68429;50.958;3.592;2024-02-21T12:01:50;9.50;99.90
54168;DHT22;68429;50.958;3.592;2024-02-21T12:04:22;9.50;99.90
54168;DHT22;68429;50.958;3.592;2024-02-21T12:06:49;9.50;99.90
54168;DHT22;68429;50.958;3.592;2024-02-21T12:09:18;9.60;99.90
54168;DHT22;68429;50.958;3.592;2024-02-21T12:11:56;9.70;99.90
54168;DHT22;68429;50.958;3.592;2024-02-21T12:14:25;9.80;99.90
54168;DHT22;68429;50.958;3.592;2024-02-21T12:16:50;9.80;99.90
54168;DHT22;68429;50.958;3.592;2024-02-21T12:19:16;9.90;99.90
54168;DHT22;68429;50.958;3.592;2024-02-21T12:21:42;9.90;99.90
54168;DHT22;68429;50.958;3.592;2024-02-21T12:24:16;9.80;99.90
54168;DHT22;68429;50.958;3.592;2024-02-21T12:26:42;9.80;99.90
54168;DHT22;68429;50.958;3.592;2024-02-21T12:29:08;9.80;99.90
54168;DHT22;68429;50.958;3.592;2024-02-21T12:31:36;9.90;99.90
54168;DHT22;68429;50.958;3.592;2024-02-21T12:34:02;9.90;99.90
54168;DHT22;68429;50.958;3.592;2024-02-21T12:36:28;10.00;99.90
54168;DHT22;68429;50.958;3.592;2024-02-21T12:38:53;10.00;99.90
54168;DHT22;68429;50.958;3.592;2024-02-21T12:41:20;10.10;99.90
54168;DHT22;68429;50.958;3.592;2024-02-21T12:43:45;10.10;99.90
54168;DHT22;68429;50.958;3.592;2024-02-21T12:46:11;10.00;99.90
54168;DHT22;68429;50.958;3.592;2024-02-21T12:48:36;10.00;99.90
54168;DHT22;68429;50.958;3.592;2024-02-21T12:51:07;9.90;99.90
54168;DHT22;68429;50.958;3.592;2024-02-21T12:53:32;9.90;99.90
54168;DHT22;68429;50.958;3.592;2024-02-21T12:55:58;10.00;99.90
54168;DHT22;68429;50.958;3.592;2024-02-21T12:58:24;9.90;99.90
54168;DHT22;68429;50.958;3.592;2024-02-21T13:00:49;9.90;99.90
54168;DHT22;68429;50.958;3.592;2024-02-21T13:03:15;9.90;99.90
54168;DHT22;68429;50.958;3.592;2024-02-21T13:05:41;9.90;99.90
54168;DHT22;68429;50.958;3.592;2024-02-21T13:08:06;9.90;99.90
54168;DHT22;68429;50.958;3.592;2024-02-21T13:10:33;9.90;99.90
54168;DHT22;68429;50.958;3.592;2024-02-21T13:13:01;9.60;99.90
54168;DHT22;68429;50.958;3.592;2024-02-21T13:15:30;9.60;99.90
54168;DHT22;68429;50.958;3.592;2024-02-21T13:17:57;9.60;99.90
54168;DHT22;68429;50.958;3.592;2024-02-21T13:20:23;9.50;99.90
54168;DHT22;68429;50.958;3.592;2024-02-21T13:22:49;9.50;99.90
54168;DHT22;68429;50.958;3.592;2024-02-21T13:25:14;9.50;99.90
54168;DHT22;68429;50.958;3.592;2024-02-21T13:27:44;9.30;99.90
54168;DHT22;68429;50.958;3.592;2024-02-21T13:30:10;9.30;99.90
54168;DHT22;68429;50.958;3.592;2024-02-21T13:32:36;9.40;99.90
54168;DHT22;68429;50.958;3.592;2024-02-21T13:35:02;9.30;99.90
54168;DHT22;68429;50.958;3.592;2024-02-21T13:37:28;9.40;99.90
54168;DHT22;68429;50.958;3.592;2024-02-21T13:39:54;9.50;99.90
54168;DHT22;68429;50.958;3.592;2024-02-21T13:42:20;9.60;99.90
54168;DHT22;68429;50.958;3.592;2024-02-21T13:44:46;9.50;99.90
54168;DHT22;68429;50.958;3.592;2024-02-21T13:47:15;9.60;99.90
54168;DHT22;68429;50.958;3.592;2024-02-21T13:49:41;9.60;99.90
54168;DHT22;68429;50.958;3.592;2024-02-21T13:52:10;9.50;99.90
54168;DHT22;68429;50.958;3.592;2024-02-21T13:54:35;9.50;99.90
54168;DHT22;68429;50.958;3.592;2024-02-21T13:57:01;9.40;99.90
54168;DHT22;68429;50.958;3.592;2024-02-21T13:59:28;9.40;99.90
54168;DHT22;68429;50.958;3.592;2024-02-21T14:01:53;9.40;99.90
54168;DHT22;68429;50.958;3.592;2024-02-21T14:04:19;9.40;99.90
54168;DHT22;68429;50.958;3.592;2024-02-21T14:06:45;9.50;99.90
54168;DHT22;68429;50.958;3.592;2024-02-21T14:09:12;9.50;99.90
54168;DHT22;68429;50.958;3.592;2024-02-21T14:11:38;9.40;99.90
54168;DHT22;68429;50.958;3.592;2024-02-21T14:14:05;9.30;99.90
54168;DHT22;68429;50.958;3.592;2024-02-21T14:16:31;9.30;99.90
54168;DHT22;68429;50.958;3.592;2024-02-21T14:18:57;9.40;99.90
54168;DHT22;68429;50.958;3.592;2024-02-21T14:21:23;9.40;99.90
54168;DHT22;68429;50.958;3.592;2024-02-21T14:23:48;9.40;99.90
54168;DHT22;68429;50.958;3.592;2024-02-21T14:26:14;9.30;99.90
54168;DHT22;68429;50.958;3.592;2024-02-21T14:28:40;9.30;99.90
54168;DHT22;68429;50.958;3.592;2024-02-21T14:31:07;9.20;99.90
54168;DHT22;68429;50.958;3.592;2024-02-21T14:33:35;9.20;99.90
54168;DHT22;68429;50.958;3.592;2024-02-21T14:36:01;9.10;99.90
54168;DHT22;68429;50.958;3.592;2024-02-21T14:38:28;9.10;99.90
54168;DHT22;68429;50.958;3.592;2024-02-21T14:40:53;9.00;99.90
54168;DHT22;68429;50.958;3.592;2024-02-21T14:43:20;9.00;99.90
54168;DHT22;68429;50.958;3.592;2024-02-21T14:45:48;9.00;99.90
54168;DHT22;68429;50.958;3.592;2024-02-21T14:48:14;9.00;99.90
54168;DHT22;68429;50.958;3.592;2024-02-21T14:50:40;9.10;99.90
54168;DHT22;68429;50.958;3.592;2024-02-21T14:53:06;9.10;99.90
54168;DHT22;68429;50.958;3.592;2024-02-21T14:55:33;9.10;99.90
54168;DHT22;68429;50.958;3.592;2024-02-21T14:57:59;9.00;99.90
54168;DHT22;68429;50.958;3.592;2024-02-21T15:00:26;9.10;99.90
54168;DHT22;68429;50.958;3.592;2024-02-21T15:02:56;9.10;99.90
54168;DHT22;68429;50.958;3.592;2024-02-21T15:05:21;9.10;99.90
54168;DHT22;68429;50.958;3.592;2024-02-21T15:07:47;9.10;99.90
54168;DHT22;68429;50.958;3.592;2024-02-21T15:10:13;9.10;99.90
54168;DHT22;68429;50.958;3.592;2024-02-21T15:12:39;9.10;99.90
54168;DHT22;68429;50.958;3.592;2024-02-21T15:15:06;9.10;99.90
54168;DHT22;68429;50.958;3.592;2024-02-21T15:17:34;9.10;99.90
54168;DHT22;68429;50.958;3.592;2024-02-21T15:19:59;9.10;99.90
54168;DHT22;68429;50.958;3.592;2024-02-21T15:22:26;9.10;99.90
54168;DHT22;68429;50.958;3.592;2024-02-21T15:24:52;9.10;99.90
54168;DHT22;68429;50.958;3.592;2024-02-21T15:27:18;9.10;99.90
54168;DHT22;68429;50.958;3.592;2024-02-21T15:29:44;9.20;99.90
54168;DHT22;68429;50.958;3.592;2024-02-21T15:32:10;9.10;99.90
54168;DHT22;68429;50.958;3.592;2024-02-21T15:34:36;9.10;99.90
54168;DHT22;68429;50.958;3.592;2024-02-21T15:37:01;9.10;99.90
54168;DHT22;68429;50.958;3.592;2024-02-21T15:39:28;9.10;99.90
54168;DHT22;68429;50.958;3.592;2024-02-21T15:41:57;9.10;99.90
54168;DHT22;68429;50.958;3.592;2024-02-21T15:44:22;9.10;99.90
54168;DHT22;68429;50.958;3.592;2024-02-21T15:46:48;9.10;99.90
54168;DHT22;68429;50.958;3.592;2024-02-21T15:49:28;9.10;99.90
54168;DHT22;68429;50.958;3.592;2024-02-21T15:51:54;9.10;99.90